TimeCST,TemperatureF,Dew PointF,Humidity,Sea Level PressureIn,VisibilityMPH,Wind Direction,Wind SpeedMPH,Gust SpeedMPH,PrecipitationIn,Events,Conditions,WindDirDegrees,DateUTC
12:15 AM,12.2,10.4,92,29.90,10.0,South,6.9,-,N/A,,Overcast,180,2013-01-02 06:15:00
12:34 AM,12.2,10.4,92,29.89,10.0,South,6.9,-,N/A,,Overcast,190,2013-01-02 06:34:00
12:55 AM,12.2,12.2,100,29.88,10.0,SSW,9.2,-,N/A,,Overcast,200,2013-01-02 06:55:00
1:14 AM,12.2,12.2,100,29.88,10.0,SSW,10.4,-,N/A,,Overcast,200,2013-01-02 07:14:00
1:35 AM,14.0,12.2,93,29.87,7.0,SSW,6.9,-,N/A,Snow,Light Snow,200,2013-01-02 07:35:00
1:55 AM,14.0,12.2,93,29.87,5.0,South,5.8,-,N/A,Snow,Light Snow,190,2013-01-02 07:55:00
2:14 AM,14.0,14.0,100,29.86,5.0,South,6.9,-,N/A,Snow,Light Snow,190,2013-01-02 08:14:00
2:35 AM,15.8,14.0,93,29.86,3.0,SSW,9.2,-,N/A,,Overcast,200,2013-01-02 08:35:00
2:55 AM,15.8,14.0,93,29.86,3.0,South,8.1,-,N/A,,Overcast,190,2013-01-02 08:55:00
3:35 AM,15.8,15.8,100,29.86,10.0,South,6.9,-,N/A,,Overcast,180,2013-01-02 09:35:00
3:55 AM,15.8,15.8,100,29.85,10.0,South,6.9,-,N/A,,Overcast,180,2013-01-02 09:55:00
4:15 AM,17.6,15.8,93,29.85,7.0,South,8.1,-,N/A,,Overcast,180,2013-01-02 10:15:00
4:35 AM,17.6,17.6,100,29.85,4.0,South,8.1,-,N/A,,Overcast,180,2013-01-02 10:35:00
4:55 AM,17.6,17.6,100,29.85,3.0,South,10.4,-,N/A,,Overcast,180,2013-01-02 10:55:00
5:15 AM,17.6,17.6,100,29.84,7.0,South,6.9,-,N/A,,Overcast,170,2013-01-02 11:15:00
5:35 AM,17.6,17.6,100,29.84,5.0,South,8.1,-,N/A,,Overcast,170,2013-01-02 11:35:00
6:15 AM,19.4,19.4,100,29.84,7.0,SSE,8.1,-,N/A,,Overcast,160,2013-01-02 12:15:00
6:35 AM,19.4,19.4,100,29.84,7.0,South,9.2,-,N/A,,Overcast,170,2013-01-02 12:35:00
6:54 AM,19.4,19.4,100,29.84,7.0,South,6.9,-,N/A,,Overcast,180,2013-01-02 12:54:00
7:15 AM,19.4,19.4,100,29.85,10.0,South,5.8,-,N/A,,Overcast,180,2013-01-02 13:15:00
7:34 AM,21.2,21.2,100,29.85,10.0,Calm,Calm,-,N/A,,Overcast,0,2013-01-02 13:34:00
7:55 AM,23.0,23.0,100,29.85,10.0,South,4.6,-,N/A,,Overcast,190,2013-01-02 13:55:00
8:15 AM,23.0,23.0,100,29.86,10.0,West,3.5,-,N/A,,Overcast,280,2013-01-02 14:15:00
8:34 AM,26.6,24.8,93,29.86,10.0,NNW,12.7,-,N/A,,Overcast,340,2013-01-02 14:34:00
8:55 AM,28.4,23.0,80,29.86,10.0,NNW,13.8,-,N/A,,Overcast,340,2013-01-02 14:55:00
9:15 AM,28.4,23.0,80,29.87,10.0,NW,12.7,-,N/A,,Overcast,320,2013-01-02 15:15:00
9:34 AM,28.4,23.0,80,29.87,10.0,NW,17.3,-,N/A,,Overcast,320,2013-01-02 15:34:00
9:55 AM,28.4,23.0,80,29.89,10.0,NW,17.3,-,N/A,,Overcast,320,2013-01-02 15:55:00
10:15 AM,26.6,23.0,86,29.90,10.0,NW,20.7,25.3,N/A,,Overcast,320,2013-01-02 16:15:00
10:34 AM,26.6,24.8,93,29.91,10.0,NNW,17.3,-,N/A,,Overcast,330,2013-01-02 16:34:00
10:55 AM,26.6,24.8,93,29.92,10.0,NNW,20.7,-,N/A,,Overcast,340,2013-01-02 16:55:00
11:14 AM,24.8,24.8,100,29.93,5.0,NNW,18.4,-,N/A,,Overcast,340,2013-01-02 17:14:00
11:35 AM,24.8,21.2,86,29.93,10.0,North,16.1,24.2,N/A,,Overcast,350,2013-01-02 17:35:00
11:55 AM,24.8,21.2,86,29.94,10.0,North,16.1,-,N/A,,Overcast,350,2013-01-02 17:55:00
12:14 PM,23.0,21.2,93,29.95,10.0,North,15.0,-,N/A,,Overcast,360,2013-01-02 18:14:00
12:35 PM,23.0,21.2,93,29.95,10.0,North,15.0,-,N/A,,Overcast,360,2013-01-02 18:35:00
12:54 PM,23.0,21.2,93,29.96,10.0,North,17.3,-,N/A,,Overcast,360,2013-01-02 18:54:00
1:15 PM,21.2,19.4,93,29.96,10.0,North,16.1,-,N/A,,Overcast,350,2013-01-02 19:15:00
1:35 PM,21.2,19.4,93,29.97,10.0,North,18.4,-,N/A,,Overcast,360,2013-01-02 19:35:00
1:54 PM,21.2,17.6,86,29.97,10.0,North,19.6,24.2,N/A,,Overcast,350,2013-01-02 19:54:00
2:15 PM,19.4,15.8,86,29.98,10.0,North,15.0,-,N/A,,Mostly Cloudy,360,2013-01-02 20:15:00
2:35 PM,19.4,15.8,86,29.99,10.0,North,18.4,-,N/A,,Scattered Clouds,350,2013-01-02 20:35:00
2:54 PM,17.6,15.8,93,30.01,10.0,North,16.1,-,N/A,,Clear,350,2013-01-02 20:54:00
3:15 PM,17.6,12.2,79,30.01,10.0,North,16.1,-,N/A,,Clear,350,2013-01-02 21:15:00
3:35 PM,17.6,12.2,79,30.02,10.0,North,12.7,-,N/A,,Clear,350,2013-01-02 21:35:00
3:54 PM,15.8,12.2,86,30.04,10.0,NNW,13.8,-,N/A,,Clear,340,2013-01-02 21:54:00
4:15 PM,14.0,12.2,93,30.05,10.0,NNW,10.4,-,N/A,,Clear,340,2013-01-02 22:15:00
4:34 PM,14.0,10.4,86,30.06,10.0,NNW,12.7,-,N/A,,Clear,340,2013-01-02 22:34:00
5:15 PM,12.2,8.6,85,30.08,10.0,NNW,11.5,-,N/A,,Clear,340,2013-01-02 23:15:00
5:34 PM,12.2,8.6,85,30.09,10.0,NNW,13.8,-,N/A,,Clear,340,2013-01-02 23:34:00
5:55 PM,10.4,8.6,92,30.10,10.0,North,12.7,-,N/A,,Clear,350,2013-01-02 23:55:00
6:15 PM,10.4,8.6,92,30.11,10.0,NNW,11.5,-,N/A,,Clear,340,2013-01-03 00:15:00
6:34 PM,10.4,6.8,85,30.12,10.0,NNW,11.5,-,N/A,,Clear,340,2013-01-03 00:34:00
6:55 PM,8.6,6.8,92,30.14,10.0,North,13.8,-,N/A,,Clear,350,2013-01-03 00:55:00
7:15 PM,8.6,6.8,92,30.15,10.0,North,15.0,-,N/A,,Clear,350,2013-01-03 01:15:00
7:34 PM,8.6,6.8,92,30.16,10.0,NNW,11.5,-,N/A,,Scattered Clouds,340,2013-01-03 01:34:00
7:55 PM,8.6,6.8,92,30.16,10.0,North,15.0,-,N/A,,Overcast,350,2013-01-03 01:55:00
8:15 PM,8.6,6.8,92,30.16,10.0,North,15.0,-,N/A,,Mostly Cloudy,350,2013-01-03 02:15:00
8:34 PM,8.6,6.8,92,30.17,10.0,NNW,11.5,-,N/A,,Overcast,340,2013-01-03 02:34:00
8:55 PM,8.6,5.0,85,30.18,10.0,NNW,15.0,-,N/A,,Overcast,340,2013-01-03 02:55:00
9:14 PM,6.8,5.0,92,30.18,10.0,NNW,11.5,-,N/A,,Overcast,340,2013-01-03 03:14:00
9:35 PM,6.8,3.2,85,30.19,10.0,NNW,11.5,-,N/A,,Overcast,340,2013-01-03 03:35:00
9:55 PM,6.8,3.2,85,30.20,10.0,NNW,12.7,-,N/A,,Mostly Cloudy,340,2013-01-03 03:55:00
10:14 PM,5.0,3.2,92,30.20,10.0,NNW,11.5,-,N/A,,Mostly Cloudy,330,2013-01-03 04:14:00
10:35 PM,5.0,3.2,92,30.21,10.0,NNW,13.8,-,N/A,,Overcast,340,2013-01-03 04:35:00
10:55 PM,5.0,3.2,92,30.22,10.0,NNW,13.8,-,N/A,,Mostly Cloudy,340,2013-01-03 04:55:00
11:14 PM,5.0,1.4,85,30.22,10.0,NNW,11.5,-,N/A,,Mostly Cloudy,330,2013-01-03 05:14:00
11:35 PM,5.0,1.4,85,30.23,10.0,NNW,11.5,-,N/A,,Scattered Clouds,330,2013-01-03 05:35:00
11:55 PM,5.0,1.4,85,30.23,10.0,NNW,12.7,-,N/A,,Scattered Clouds,330,2013-01-03 05:55:00